createdAt,value
2018-03-17T00:02:11.290Z,7.97
2018-03-17T00:04:40.780Z,5.55
2018-03-17T00:07:09.473Z,6.72
2018-03-17T00:09:38.206Z,10.68
2018-03-17T00:12:06.906Z,7.47
2018-03-17T00:14:35.595Z,5.60
2018-03-17T00:17:04.308Z,6.07
2018-03-17T00:19:33.015Z,5.12
2018-03-17T00:22:02.489Z,9.90
2018-03-17T00:24:31.293Z,9.93
2018-03-17T00:26:59.746Z,11.50
2018-03-17T00:29:28.467Z,7.55
2018-03-17T00:31:57.168Z,8.35
2018-03-17T00:34:25.618Z,4.80
2018-03-17T00:36:54.334Z,3.50
2018-03-17T00:39:22.784Z,5.63
2018-03-17T00:41:51.504Z,7.53
2018-03-17T00:44:20.207Z,7.37
2018-03-17T00:46:48.787Z,5.93
2018-03-17T00:49:18.274Z,5.10
2018-03-17T00:51:46.987Z,8.85
2018-03-17T00:54:16.258Z,6.00
2018-03-17T00:56:44.900Z,11.37
2018-03-17T00:59:13.614Z,6.95
2018-03-17T01:01:42.807Z,8.60
2018-03-17T01:04:11.542Z,8.02
2018-03-17T01:06:39.983Z,8.00
2018-03-17T01:09:08.062Z,12.03
2018-03-17T01:11:36.791Z,16.08
2018-03-17T01:14:04.898Z,9.90
2018-03-17T01:16:33.341Z,9.00
2018-03-17T01:19:01.778Z,8.30
2018-03-17T01:21:30.214Z,7.40
2018-03-17T01:23:58.757Z,7.00
2018-03-17T01:26:27.950Z,8.43
2018-03-17T01:28:57.169Z,5.53
2018-03-17T01:31:25.594Z,7.10
2018-03-17T01:33:54.020Z,7.03
2018-03-17T01:36:23.218Z,7.90
2018-03-17T01:38:52.430Z,7.53
2018-03-17T01:41:20.942Z,8.50
2018-03-17T01:43:49.374Z,13.30
2018-03-17T01:46:18.587Z,10.33
2018-03-17T01:48:47.779Z,10.40
2018-03-17T01:51:16.995Z,7.33
2018-03-17T01:53:45.426Z,5.33
2018-03-17T01:56:14.079Z,8.10
2018-03-17T01:58:42.574Z,8.90
2018-03-17T02:01:10.687Z,12.77
2018-03-17T02:03:39.891Z,9.97
2018-03-17T02:06:09.126Z,12.63
2018-03-17T02:08:37.567Z,13.43
2018-03-17T02:11:06.007Z,11.70
2018-03-17T02:13:34.479Z,12.57
2018-03-17T02:16:02.913Z,12.00
2018-03-17T02:18:31.399Z,11.50
2018-03-17T02:21:00.098Z,11.55
2018-03-17T02:23:29.302Z,11.27
2018-03-17T02:25:58.502Z,11.20
2018-03-17T02:28:27.906Z,11.53
2018-03-17T02:30:57.102Z,10.03
2018-03-17T02:33:26.307Z,10.57
2018-03-17T02:35:55.493Z,11.43
2018-03-17T02:38:24.686Z,9.67
2018-03-17T02:40:53.122Z,7.80
2018-03-17T02:43:21.750Z,10.67
2018-03-17T02:45:50.203Z,23.67
2018-03-17T02:48:18.650Z,12.63
2018-03-17T02:50:47.074Z,13.20
2018-03-17T02:53:15.517Z,15.60
2018-03-17T02:55:44.111Z,14.97
2018-03-17T02:58:12.546Z,19.93
2018-03-17T03:00:40.995Z,13.53
2018-03-17T03:03:09.430Z,18.97
2018-03-17T03:05:38.651Z,20.20
2018-03-17T03:08:07.076Z,26.03
2018-03-17T03:10:35.527Z,18.83
2018-03-17T03:13:04.826Z,17.63
2018-03-17T03:15:33.281Z,15.23
2018-03-17T03:18:02.568Z,17.70
2018-03-17T03:20:31.774Z,19.80
2018-03-17T03:23:00.990Z,15.97
2018-03-17T03:25:29.488Z,20.70
2018-03-17T03:27:57.923Z,20.33
2018-03-17T03:30:26.356Z,21.57
2018-03-17T03:32:54.794Z,18.57
2018-03-17T03:35:23.994Z,22.87
2018-03-17T03:37:53.209Z,24.97
2018-03-17T03:40:21.640Z,22.33
2018-03-17T03:42:50.206Z,21.20
2018-03-17T03:45:18.634Z,20.70
2018-03-17T03:47:47.843Z,21.93
2018-03-17T03:50:16.286Z,21.70
2018-03-17T03:52:44.749Z,30.27
2018-03-17T03:55:13.182Z,25.53
2018-03-17T03:57:42.646Z,27.37
2018-03-17T04:00:11.095Z,25.47
2018-03-17T04:02:40.820Z,29.70
2018-03-17T04:05:09.257Z,31.00
2018-03-17T04:07:38.817Z,33.90
2018-03-17T04:10:07.251Z,34.50
2018-03-17T04:12:36.658Z,35.10
2018-03-17T04:15:05.867Z,35.00
2018-03-17T04:17:34.748Z,32.47
2018-03-17T04:20:03.625Z,33.90
2018-03-17T04:22:33.130Z,33.73
2018-03-17T04:25:02.666Z,33.43
2018-03-17T04:27:32.196Z,38.57
2018-03-17T04:30:01.667Z,34.70
2018-03-17T04:32:31.127Z,38.60
2018-03-17T04:35:00.569Z,40.80
2018-03-17T04:37:30.024Z,38.03
2018-03-17T04:39:59.461Z,49.40
2018-03-17T04:42:28.917Z,40.23
2018-03-17T04:44:58.370Z,41.50
2018-03-17T04:47:28.085Z,44.95
2018-03-17T04:49:57.542Z,41.40
2018-03-17T04:52:27.261Z,40.10
2018-03-17T04:54:56.703Z,36.93
2018-03-17T04:57:26.437Z,41.70
2018-03-17T04:59:56.299Z,40.83
2018-03-17T05:02:25.750Z,39.83
2018-03-17T05:04:55.478Z,49.58
2018-03-17T05:07:25.250Z,44.20
2018-03-17T05:09:55.029Z,47.60
2018-03-17T05:12:25.077Z,50.85
2018-03-17T05:14:54.949Z,41.85
2018-03-17T05:17:24.659Z,45.92
2018-03-17T05:19:54.386Z,54.13
2018-03-17T05:22:24.105Z,46.37
2018-03-17T05:24:53.822Z,39.63
2018-03-17T05:27:23.537Z,45.75
2018-03-17T05:29:53.264Z,44.80
2018-03-17T05:32:22.986Z,47.60
2018-03-17T05:34:52.717Z,48.78
2018-03-17T05:37:22.451Z,47.13
2018-03-17T05:39:51.986Z,43.35
2018-03-17T05:42:21.724Z,48.95
2018-03-17T05:44:51.638Z,45.17
2018-03-17T05:47:21.385Z,45.90
2018-03-17T05:49:51.259Z,46.33
2018-03-17T05:52:21.406Z,50.15
2018-03-17T05:54:51.116Z,46.28
2018-03-17T05:57:20.587Z,47.47
2018-03-17T05:59:50.378Z,51.42
2018-03-17T06:02:19.854Z,45.00
2018-03-17T06:04:49.579Z,51.95
2018-03-17T06:07:19.394Z,51.08
2018-03-17T06:09:49.358Z,48.95
2018-03-17T06:12:19.085Z,45.30
2018-03-17T06:14:48.941Z,44.20
2018-03-17T06:17:18.690Z,51.75
2018-03-17T06:19:48.426Z,49.45
2018-03-17T06:22:18.147Z,43.90
2018-03-17T06:24:47.876Z,48.20
2018-03-17T06:27:17.623Z,44.60
2018-03-17T06:29:47.573Z,42.67
2018-03-17T06:32:17.337Z,44.95
2018-03-17T06:34:47.074Z,48.78
2018-03-17T06:37:16.860Z,46.03
2018-03-17T06:39:46.466Z,43.90
2018-03-17T06:42:16.238Z,43.53
2018-03-17T06:44:45.973Z,42.33
2018-03-17T06:47:15.715Z,49.28
2018-03-17T06:49:45.503Z,43.05
2018-03-17T06:52:15.270Z,48.20
2018-03-17T06:54:44.991Z,49.45
2018-03-17T06:57:14.722Z,50.80
2018-03-17T06:59:44.432Z,43.22
2018-03-17T07:02:14.162Z,50.78
2018-03-17T07:04:43.898Z,47.58
2018-03-17T07:07:13.686Z,48.92
2018-03-17T07:09:43.399Z,44.75
2018-03-17T07:12:13.126Z,45.88
2018-03-17T07:14:42.838Z,53.72
2018-03-17T07:17:12.390Z,45.17
2018-03-17T07:19:42.125Z,48.72
2018-03-17T07:22:11.966Z,45.28
2018-03-17T07:24:41.694Z,51.20
2018-03-17T07:27:11.446Z,51.40
2018-03-17T07:29:41.310Z,49.42
2018-03-17T07:32:11.030Z,54.17
2018-03-17T07:34:40.856Z,43.20
2018-03-17T07:37:10.587Z,45.92
2018-03-17T07:39:40.313Z,41.20
2018-03-17T07:42:10.038Z,44.22
2018-03-17T07:44:39.843Z,49.75
2018-03-17T07:47:09.562Z,44.95
2018-03-17T07:49:39.302Z,44.95
2018-03-17T07:52:08.854Z,46.63
2018-03-17T07:54:38.590Z,50.33
2018-03-17T07:57:08.326Z,48.58
2018-03-17T07:59:38.122Z,57.58
2018-03-17T08:02:07.862Z,50.67
2018-03-17T08:04:37.638Z,55.60
2018-03-17T08:07:07.381Z,40.92
2018-03-17T08:09:37.603Z,49.28
2018-03-17T08:12:07.423Z,49.90
2018-03-17T08:14:37.293Z,51.17
2018-03-17T08:17:07.038Z,50.15
2018-03-17T08:19:36.774Z,47.03
2018-03-17T08:22:06.502Z,54.60
2018-03-17T08:24:36.225Z,47.40
2018-03-17T08:27:05.950Z,44.90
2018-03-17T08:29:35.757Z,44.70
2018-03-17T08:32:05.527Z,44.55
2018-03-17T08:34:35.257Z,42.58
2018-03-17T08:37:04.997Z,45.72
2018-03-17T08:39:34.735Z,44.50
2018-03-17T08:42:04.617Z,52.25
2018-03-17T08:44:34.589Z,42.62
2018-03-17T08:47:04.323Z,44.08
2018-03-17T08:49:34.054Z,42.72
2018-03-17T08:52:03.831Z,44.83
2018-03-17T08:54:33.722Z,52.40
2018-03-17T08:57:03.446Z,43.28
2018-03-17T08:59:33.173Z,42.58
2018-03-17T09:02:02.884Z,46.42
2018-03-17T09:04:32.672Z,50.60
2018-03-17T09:07:02.611Z,42.20
2018-03-17T09:09:32.335Z,41.78
2018-03-17T09:12:02.060Z,42.15
2018-03-17T09:14:31.805Z,43.22
2018-03-17T09:17:01.537Z,44.40
2018-03-17T09:19:31.298Z,41.35
2018-03-17T09:22:01.022Z,41.88
2018-03-17T09:24:30.742Z,41.25
2018-03-17T09:27:00.486Z,41.72
2018-03-17T09:29:30.558Z,38.80
2018-03-17T09:32:00.542Z,38.75
2018-03-17T09:34:30.274Z,40.63
2018-03-17T09:36:59.986Z,40.47
2018-03-17T09:39:29.805Z,43.35
2018-03-17T09:41:59.562Z,39.70
2018-03-17T09:44:29.284Z,43.80
2018-03-17T09:46:58.846Z,45.00
2018-03-17T09:49:28.697Z,48.33
2018-03-17T09:51:58.411Z,47.90
2018-03-17T09:54:28.180Z,45.20
2018-03-17T09:56:57.891Z,42.97
2018-03-17T09:59:27.627Z,44.83
2018-03-17T10:01:57.402Z,41.95
2018-03-17T10:04:26.778Z,43.13
2018-03-17T10:06:56.511Z,44.10
2018-03-17T10:09:26.259Z,42.17
2018-03-17T10:11:56.002Z,42.47
2018-03-17T10:14:25.724Z,38.22
2018-03-17T10:16:55.595Z,44.05
2018-03-17T10:19:25.362Z,46.20
2018-03-17T10:21:55.110Z,45.42
2018-03-17T10:24:24.890Z,46.67
2018-03-17T10:26:54.668Z,45.00
2018-03-17T10:29:24.481Z,43.25
2018-03-17T10:31:54.321Z,44.92
2018-03-17T10:34:24.064Z,44.90
2018-03-17T10:36:53.828Z,51.58
2018-03-17T10:39:23.550Z,56.40
2018-03-17T10:41:53.463Z,50.30
2018-03-17T10:44:23.205Z,55.85
2018-03-17T10:46:53.039Z,47.90
2018-03-17T10:49:22.771Z,46.00
2018-03-17T10:51:52.290Z,49.50
2018-03-17T10:54:22.025Z,47.88
2018-03-17T10:56:51.785Z,54.33
2018-03-17T10:59:21.334Z,43.30
2018-03-17T11:01:50.899Z,50.15
2018-03-17T11:04:20.602Z,49.00
2018-03-17T11:06:50.366Z,49.75
2018-03-17T11:09:20.086Z,46.25
2018-03-17T11:11:49.814Z,48.72
2018-03-17T11:14:19.338Z,45.15
2018-03-17T11:16:49.158Z,46.28
2018-03-17T11:19:19.014Z,51.42
2018-03-17T11:21:48.965Z,46.65
2018-03-17T11:24:18.669Z,47.00
2018-03-17T11:26:48.445Z,41.83
2018-03-17T11:29:18.185Z,48.78
2018-03-17T11:31:47.968Z,42.95
2018-03-17T11:34:17.764Z,43.72
2018-03-17T11:36:47.580Z,43.95
2018-03-17T11:39:17.312Z,40.88
2018-03-17T11:41:45.888Z,44.15
2018-03-17T11:44:15.623Z,39.22
2018-03-17T11:46:45.207Z,44.90
2018-03-17T11:49:14.924Z,43.13
2018-03-17T11:51:44.662Z,43.67
2018-03-17T11:54:14.385Z,44.33
2018-03-17T11:56:43.086Z,42.45
2018-03-17T11:59:11.815Z,38.45
2018-03-17T12:01:40.941Z,45.05
2018-03-17T12:04:10.682Z,41.45
2018-03-17T12:06:40.416Z,38.88
2018-03-17T12:09:10.147Z,34.95
2018-03-17T12:11:39.895Z,37.13
2018-03-17T12:14:09.623Z,38.03
2018-03-17T12:16:39.411Z,42.10
2018-03-17T12:19:09.146Z,39.33
2018-03-17T12:21:38.902Z,38.35
2018-03-17T12:24:08.696Z,44.85
2018-03-17T12:26:38.442Z,43.35
2018-03-17T12:29:08.538Z,37.38
2018-03-17T12:31:38.306Z,38.80
2018-03-17T12:34:08.081Z,41.58
2018-03-17T12:36:37.864Z,36.30
2018-03-17T12:39:07.572Z,37.67
2018-03-17T12:41:37.315Z,39.20
2018-03-17T12:44:07.054Z,35.33
2018-03-17T12:46:36.795Z,35.00
2018-03-17T12:49:06.526Z,38.42
2018-03-17T12:51:36.262Z,34.28
2018-03-17T12:54:06.039Z,34.38
2018-03-17T12:56:35.777Z,33.22
2018-03-17T12:59:05.550Z,39.75
2018-03-17T13:01:35.263Z,37.95
2018-03-17T13:04:04.999Z,36.97
2018-03-17T13:06:34.728Z,36.67
2018-03-17T13:09:04.227Z,38.15
2018-03-17T13:11:33.960Z,36.85
2018-03-17T13:14:03.544Z,34.95
2018-03-17T13:16:33.273Z,34.80
2018-03-17T13:19:02.783Z,37.28
2018-03-17T13:21:32.531Z,33.50
2018-03-17T13:24:02.273Z,34.42
2018-03-17T13:26:31.992Z,36.75
2018-03-17T13:29:01.818Z,31.92
2018-03-17T13:31:31.563Z,33.30
2018-03-17T13:34:01.359Z,33.13
2018-03-17T13:36:36.494Z,34.70
2018-03-17T13:39:06.250Z,34.53
2018-03-17T13:41:35.998Z,33.60
2018-03-17T13:44:05.739Z,34.83
2018-03-17T13:46:35.486Z,32.05
2018-03-17T13:49:05.266Z,36.17
2018-03-17T13:51:34.988Z,34.30
2018-03-17T13:54:04.762Z,32.45
2018-03-17T13:56:34.502Z,31.20
2018-03-17T13:59:04.226Z,36.97
2018-03-17T14:01:33.962Z,32.53
2018-03-17T14:04:03.699Z,37.83
2018-03-17T14:06:34.881Z,32.75
2018-03-17T14:09:04.351Z,29.27
2018-03-17T14:11:34.217Z,34.10
2018-03-17T14:14:03.620Z,32.60
2018-03-17T14:16:33.351Z,34.92
2018-03-17T14:19:03.142Z,35.50
2018-03-17T14:21:33.123Z,33.55
2018-03-17T14:24:02.846Z,32.47
2018-03-17T14:26:32.574Z,37.35
2018-03-17T14:29:02.363Z,35.30
2018-03-17T14:31:31.988Z,38.70
2018-03-17T14:34:01.803Z,35.40
2018-03-17T14:36:31.727Z,34.42
2018-03-17T14:39:01.609Z,38.53
2018-03-17T14:41:31.506Z,33.72
2018-03-17T14:44:01.255Z,35.17
2018-03-17T14:46:29.970Z,33.70
2018-03-17T14:48:59.730Z,35.80
2018-03-17T14:51:29.146Z,48.58
2018-03-17T14:53:58.904Z,44.60
2018-03-17T14:56:28.631Z,40.05
2018-03-17T14:58:58.510Z,35.63
2018-03-17T15:01:28.239Z,37.92
2018-03-17T15:03:58.073Z,34.30
2018-03-17T15:06:28.028Z,35.35
2018-03-17T15:08:57.788Z,34.95
2018-03-17T15:11:27.538Z,36.00
2018-03-17T15:13:57.258Z,35.15
2018-03-17T15:16:26.986Z,31.62
2018-03-17T15:18:56.702Z,38.25
2018-03-17T15:21:26.435Z,38.20
2018-03-17T15:23:56.379Z,37.33
2018-03-17T15:26:26.118Z,38.88
2018-03-17T15:28:55.831Z,37.00
2018-03-17T15:31:25.554Z,40.90
2018-03-17T15:33:55.468Z,38.97
2018-03-17T15:36:25.398Z,40.97
2018-03-17T15:38:55.122Z,46.20
2018-03-17T15:41:24.869Z,39.97
2018-03-17T15:43:54.642Z,44.65
2018-03-17T15:46:24.374Z,40.30
2018-03-17T15:48:54.085Z,34.10
2018-03-17T15:51:23.910Z,39.15
2018-03-17T15:53:53.642Z,36.42
2018-03-17T15:56:23.533Z,37.13
2018-03-17T15:58:52.909Z,36.35
2018-03-17T16:01:22.623Z,35.25
2018-03-17T16:03:52.393Z,39.83
2018-03-17T16:06:22.182Z,36.70
2018-03-17T16:08:51.952Z,42.05
2018-03-17T16:11:21.678Z,42.60
2018-03-17T16:13:51.644Z,42.83
2018-03-17T16:16:21.410Z,42.30
2018-03-17T16:18:51.196Z,46.78
2018-03-17T16:21:20.935Z,39.35
2018-03-17T16:23:50.657Z,33.97
2018-03-17T16:26:20.654Z,34.63
2018-03-17T16:28:51.135Z,38.63
2018-03-17T16:31:21.581Z,36.33
2018-03-17T16:33:52.289Z,41.72
2018-03-17T16:36:23.290Z,42.25
2018-03-17T16:38:53.350Z,35.85
2018-03-17T16:41:23.504Z,35.80
2018-03-17T16:43:53.775Z,35.53
2018-03-17T16:46:23.343Z,33.05
2018-03-17T16:48:52.455Z,36.28
2018-03-17T16:51:22.705Z,38.63
2018-03-17T16:53:52.435Z,34.50
2018-03-17T16:56:22.006Z,33.70
2018-03-17T16:58:51.736Z,32.55
2018-03-17T17:01:21.626Z,34.70
2018-03-17T17:03:51.342Z,31.40
2018-03-17T17:06:20.498Z,35.55
2018-03-17T17:08:49.634Z,34.42
2018-03-17T17:11:19.872Z,34.90
2018-03-17T17:13:49.775Z,33.00
2018-03-17T17:16:19.574Z,34.47
2018-03-17T17:18:49.503Z,34.10
2018-03-17T17:21:18.624Z,30.65
2018-03-17T17:23:48.565Z,31.90
2018-03-17T17:26:18.329Z,31.67
2018-03-17T17:28:48.080Z,35.75
2018-03-17T17:31:17.830Z,28.42
2018-03-17T17:33:46.543Z,26.25
2018-03-17T17:36:15.688Z,31.60
2018-03-17T17:38:45.457Z,33.90
2018-03-17T17:41:14.593Z,33.08
2018-03-17T17:43:44.468Z,30.55
2018-03-17T17:46:13.608Z,29.75
2018-03-17T17:48:43.594Z,28.87
2018-03-17T17:51:13.318Z,29.95
2018-03-17T17:53:43.061Z,31.10
2018-03-17T17:56:12.796Z,28.58
2018-03-17T17:58:42.546Z,28.33
2018-03-17T18:01:12.275Z,28.73
2018-03-17T18:03:42.014Z,30.83
2018-03-17T18:06:11.750Z,28.77
2018-03-17T18:08:41.508Z,25.85
2018-03-17T18:11:10.785Z,30.15
2018-03-17T18:13:39.563Z,30.75
2018-03-17T18:16:08.664Z,27.35
2018-03-17T18:18:38.501Z,28.58
2018-03-17T18:21:08.250Z,28.70
2018-03-17T18:23:38.482Z,28.40
2018-03-17T18:26:07.731Z,29.30
2018-03-17T18:28:37.604Z,26.20
2018-03-17T18:31:07.354Z,30.83
2018-03-17T18:33:37.102Z,34.20
2018-03-17T18:36:06.850Z,29.37
2018-03-17T18:38:36.579Z,26.33
2018-03-17T18:41:06.344Z,25.37
2018-03-17T18:43:36.139Z,30.12
2018-03-17T18:46:05.900Z,29.25
2018-03-17T18:48:35.630Z,29.37
2018-03-17T18:51:05.389Z,27.70
2018-03-17T18:53:35.318Z,28.77
2018-03-17T18:56:05.143Z,31.37
2018-03-17T18:58:34.863Z,27.05
2018-03-17T19:01:04.615Z,31.83
2018-03-17T19:03:34.390Z,28.50
2018-03-17T19:06:04.127Z,31.12
2018-03-17T19:08:33.618Z,32.10
2018-03-17T19:11:03.358Z,30.98
2018-03-17T19:13:33.090Z,27.35
2018-03-17T19:16:02.604Z,30.92
2018-03-17T19:18:32.375Z,32.95
2018-03-17T19:21:02.170Z,31.12
2018-03-17T19:23:32.082Z,28.73
2018-03-17T19:26:01.584Z,32.58
2018-03-17T19:28:31.330Z,32.58
2018-03-17T19:31:00.341Z,32.30
2018-03-17T19:33:29.093Z,31.85
2018-03-17T19:35:58.591Z,31.80
2018-03-17T19:38:28.106Z,33.90
2018-03-17T19:40:57.893Z,34.08
2018-03-17T19:43:27.619Z,33.53
2018-03-17T19:45:57.400Z,30.55
2018-03-17T19:48:26.115Z,32.30
2018-03-17T19:50:55.610Z,28.20
2018-03-17T19:53:24.731Z,31.00
2018-03-17T19:55:54.247Z,35.13
2018-03-17T19:58:23.027Z,32.15
2018-03-17T20:00:52.786Z,31.55
2018-03-17T20:03:22.251Z,34.40
2018-03-17T20:05:51.371Z,39.03
2018-03-17T20:08:21.108Z,32.72
2018-03-17T20:10:50.851Z,31.52
2018-03-17T20:13:20.367Z,31.92
2018-03-17T20:15:49.847Z,29.60
2018-03-17T20:18:19.802Z,37.72
2018-03-17T20:20:48.566Z,34.00
2018-03-17T20:23:18.348Z,36.10
2018-03-17T20:25:47.055Z,35.45
2018-03-17T20:28:15.884Z,37.60
2018-03-17T20:30:44.646Z,35.35
2018-03-17T20:33:14.582Z,34.28
2018-03-17T20:35:44.075Z,35.08
2018-03-17T20:38:13.571Z,38.17
2018-03-17T20:40:43.359Z,39.75
2018-03-17T20:43:12.869Z,36.78
2018-03-17T20:45:41.571Z,34.03
2018-03-17T20:48:10.311Z,40.60
2018-03-17T20:50:39.066Z,40.05
2018-03-17T20:53:09.292Z,35.53
2018-03-17T20:55:38.807Z,38.45
2018-03-17T20:58:08.547Z,38.47
2018-03-17T21:00:37.270Z,40.85
2018-03-17T21:03:06.400Z,35.55
2018-03-17T21:05:35.918Z,36.28
2018-03-17T21:08:05.670Z,35.97
2018-03-17T21:10:35.150Z,40.63
2018-03-17T21:13:05.486Z,39.40
2018-03-17T21:15:34.260Z,38.40
2018-03-17T21:18:02.979Z,39.67
2018-03-17T21:20:31.702Z,37.67
2018-03-17T21:23:01.474Z,38.78
2018-03-17T21:25:30.995Z,42.15
2018-03-17T21:27:59.775Z,33.85
2018-03-17T21:30:28.507Z,40.70
2018-03-17T21:32:57.418Z,43.17
2018-03-17T21:35:26.926Z,42.33
2018-03-17T21:37:56.485Z,42.33
2018-03-17T21:40:26.093Z,41.05
2018-03-17T21:42:54.821Z,43.03
2018-03-17T21:45:25.116Z,44.58
2018-03-17T21:47:54.240Z,41.35
2018-03-17T21:50:23.795Z,42.83
2018-03-17T21:52:52.924Z,38.35
2018-03-17T21:55:22.662Z,39.20
2018-03-17T21:57:52.438Z,39.53
2018-03-17T22:00:22.189Z,42.00
2018-03-17T22:02:51.937Z,45.20
2018-03-17T22:05:21.663Z,44.15
2018-03-17T22:07:51.427Z,38.55
2018-03-17T22:10:21.440Z,43.30
2018-03-17T22:12:50.935Z,44.53
2018-03-17T22:15:19.659Z,48.13
2018-03-17T22:17:48.414Z,43.13
2018-03-17T22:20:17.229Z,40.53
2018-03-17T22:22:46.136Z,39.70
2018-03-17T22:25:15.060Z,39.00
2018-03-17T22:27:43.804Z,40.35
2018-03-17T22:30:12.627Z,41.60
2018-03-17T22:32:41.371Z,39.97
2018-03-17T22:35:10.844Z,31.42
2018-03-17T22:37:39.575Z,35.83
2018-03-17T22:40:08.319Z,33.90
2018-03-17T22:42:38.067Z,32.70
2018-03-17T22:45:07.615Z,34.47
2018-03-17T22:47:36.346Z,36.00
2018-03-17T22:50:05.467Z,40.05
2018-03-17T22:52:35.050Z,39.47
2018-03-17T22:55:05.323Z,37.83
2018-03-17T22:57:34.801Z,40.22
2018-03-17T23:00:04.220Z,33.53
2018-03-17T23:02:34.020Z,36.67
2018-03-17T23:05:03.523Z,37.20
2018-03-17T23:07:33.245Z,32.58
2018-03-17T23:10:01.963Z,38.40
2018-03-17T23:12:30.730Z,40.60
2018-03-17T23:14:59.875Z,43.20
2018-03-17T23:17:28.414Z,39.35
2018-03-17T23:19:56.962Z,40.72
2018-03-17T23:22:26.455Z,34.95
2018-03-17T23:24:55.596Z,36.40
2018-03-17T23:27:24.326Z,36.30
2018-03-17T23:29:52.838Z,40.12
2018-03-17T23:32:22.026Z,31.42
2018-03-17T23:34:50.758Z,35.10
2018-03-17T23:37:19.467Z,38.05
2018-03-17T23:39:48.411Z,35.97
2018-03-17T23:42:17.173Z,34.53
2018-03-17T23:44:45.868Z,39.55
2018-03-17T23:47:14.363Z,38.95
2018-03-17T23:49:42.920Z,39.60
2018-03-17T23:52:11.528Z,41.60
2018-03-17T23:54:40.083Z,38.00
2018-03-17T23:57:08.615Z,40.53
2018-03-17T23:59:37.927Z,44.08
